createdAt,value
2023-01-07T00:00:06.132Z,5.30
2023-01-07T00:05:05.345Z,5.80
2023-01-07T00:10:03.561Z,5.70
2023-01-07T00:15:02.774Z,6.90
2023-01-07T00:20:02.171Z,5.50
2023-01-07T00:25:02.279Z,6.30
2023-01-07T00:30:01.569Z,5.70
2023-01-07T00:35:00.874Z,5.60
2023-01-07T00:40:00.201Z,7.50
2023-01-07T00:44:59.456Z,5.60
2023-01-07T00:49:57.746Z,5.20
2023-01-07T00:54:59.064Z,5.90
2023-01-07T00:59:58.339Z,5.40
2023-01-07T01:04:58.634Z,5.40
2023-01-07T01:09:55.925Z,5.80
2023-01-07T01:14:54.256Z,7.70
2023-01-07T01:19:53.589Z,5.60
2023-01-07T01:24:52.909Z,5.60
2023-01-07T01:29:53.463Z,6.40
2023-01-07T01:34:51.391Z,6.20
2023-01-07T01:39:51.701Z,6.20
2023-01-07T01:44:50.975Z,6.90
2023-01-07T01:49:49.272Z,6.90
2023-01-07T01:54:49.585Z,6.80
2023-01-07T01:59:48.853Z,6.30
2023-01-07T02:04:48.132Z,6.00
2023-01-07T02:09:47.435Z,6.20
2023-01-07T02:14:45.739Z,6.80
2023-01-07T02:19:45.105Z,6.30
2023-01-07T02:24:44.248Z,5.90
2023-01-07T02:29:42.581Z,6.10
2023-01-07T02:34:43.907Z,6.50
2023-01-07T02:39:43.180Z,6.10
2023-01-07T02:44:41.469Z,5.40
2023-01-07T02:49:41.791Z,6.10
2023-01-07T02:54:39.057Z,6.00
2023-01-07T02:59:39.350Z,6.00
2023-01-07T03:04:39.718Z,5.60
2023-01-07T03:09:38.849Z,5.20
2023-01-07T03:14:36.919Z,5.50
2023-01-07T03:19:37.224Z,5.60
2023-01-07T03:24:35.557Z,5.30
2023-01-07T03:29:36.666Z,5.60
2023-01-07T03:34:33.973Z,5.10
2023-01-07T03:39:33.274Z,5.30
2023-01-07T03:44:32.617Z,4.80
2023-01-07T03:49:31.934Z,4.70
2023-01-07T03:54:32.336Z,4.90
2023-01-07T03:59:32.470Z,5.50
2023-01-07T04:04:31.089Z,5.20
2023-01-07T04:09:29.221Z,5.00
2023-01-07T04:14:29.280Z,5.30
2023-01-07T04:19:28.581Z,4.50
2023-01-07T04:24:26.768Z,5.10
2023-01-07T04:29:25.886Z,4.80
2023-01-07T04:34:26.209Z,5.00
2023-01-07T04:39:25.531Z,4.90
2023-01-07T04:44:23.887Z,4.70
2023-01-07T04:49:25.022Z,5.50
2023-01-07T04:54:23.341Z,5.30
2023-01-07T04:59:22.651Z,5.10
2023-01-07T05:04:21.995Z,4.70
2023-01-07T05:09:20.099Z,6.20
2023-01-07T05:14:20.400Z,4.30
2023-01-07T05:19:18.712Z,4.20
2023-01-07T05:24:18.042Z,4.80
2023-01-07T05:29:16.814Z,4.10
2023-01-07T05:34:15.564Z,4.60
2023-01-07T05:39:15.726Z,4.20
2023-01-07T05:44:15.863Z,4.40
2023-01-07T05:49:14.046Z,4.50
2023-01-07T05:54:13.244Z,3.90
2023-01-07T05:59:14.409Z,4.90
2023-01-07T06:04:11.553Z,3.90
2023-01-07T06:09:12.713Z,4.20
2023-01-07T06:14:10.856Z,4.50
2023-01-07T06:19:09.167Z,5.60
2023-01-07T06:24:08.737Z,4.70
2023-01-07T06:29:07.521Z,4.30
2023-01-07T06:34:07.699Z,5.00
2023-01-07T06:39:05.965Z,4.70
2023-01-07T06:44:05.306Z,5.90
2023-01-07T06:49:04.534Z,5.20
2023-01-07T06:54:04.886Z,5.40
2023-01-07T06:59:02.995Z,4.90
2023-01-07T07:04:03.355Z,3.90
2023-01-07T07:09:03.529Z,4.20
2023-01-07T07:14:01.834Z,5.00
2023-01-07T07:19:00.016Z,5.40
2023-01-07T07:24:00.228Z,6.40
2023-01-07T07:28:59.383Z,7.00
2023-01-07T07:33:58.507Z,6.80
2023-01-07T07:38:57.645Z,5.80
2023-01-07T07:43:55.810Z,7.10
2023-01-07T07:48:55.962Z,8.20
2023-01-07T07:53:55.104Z,6.10
2023-01-07T07:58:53.419Z,6.30
2023-01-07T08:03:52.547Z,8.20
2023-01-07T08:08:52.876Z,5.10
2023-01-07T08:13:52.221Z,7.80
2023-01-07T08:18:50.336Z,8.90
2023-01-07T08:23:49.690Z,8.30
2023-01-07T08:28:49.361Z,7.60
2023-01-07T08:33:49.355Z,8.70
2023-01-07T08:38:47.498Z,9.30
2023-01-07T08:43:47.533Z,8.30
2023-01-07T08:48:47.849Z,6.60
2023-01-07T08:53:46.184Z,7.30
2023-01-07T08:58:44.450Z,8.30
2023-01-07T09:03:43.778Z,7.10
2023-01-07T09:08:43.081Z,7.60
2023-01-07T09:13:42.369Z,7.50
2023-01-07T09:18:41.682Z,6.40
2023-01-07T09:23:41.003Z,6.20
2023-01-07T09:28:41.317Z,5.80
2023-01-07T09:33:39.631Z,5.80
2023-01-07T09:38:38.955Z,6.00
2023-01-07T09:43:59.631Z,6.60
2023-01-07T09:48:38.441Z,5.80
2023-01-07T09:53:36.750Z,6.10
2023-01-07T09:58:38.046Z,5.70
2023-01-07T10:03:35.267Z,4.70
2023-01-07T10:08:35.593Z,5.50
2023-01-07T10:13:33.912Z,4.80
2023-01-07T10:18:33.315Z,5.00
2023-01-07T10:23:32.452Z,64.80
2023-01-07T10:28:32.588Z,89.40
2023-01-07T10:33:31.903Z,68.40
2023-01-07T10:38:30.266Z,96.30
2023-01-07T10:43:29.442Z,129.90
2023-01-07T10:48:28.598Z,93.70
2023-01-07T10:53:28.999Z,80.30
2023-01-07T10:58:27.185Z,108.20
2023-01-07T11:03:28.515Z,67.30
2023-01-07T11:08:26.862Z,78.10
2023-01-07T11:13:24.948Z,55.50
2023-01-07T11:18:23.253Z,53.00
2023-01-07T11:23:24.577Z,58.70
2023-01-07T11:28:23.854Z,46.90
2023-01-07T11:33:22.166Z,38.40
2023-01-07T11:38:22.471Z,39.90
2023-01-07T11:43:20.764Z,35.30
2023-01-07T11:48:20.073Z,27.80
2023-01-07T11:53:19.383Z,24.30
2023-01-07T11:58:29.926Z,20.00
2023-01-07T12:03:17.945Z,21.20
2023-01-07T12:08:17.069Z,17.50
2023-01-07T12:13:16.386Z,15.70
2023-01-07T12:18:15.706Z,14.40
2023-01-07T12:23:15.011Z,14.20
2023-01-07T12:28:14.334Z,15.50
2023-01-07T12:33:14.654Z,11.10
2023-01-07T12:38:12.987Z,17.10
2023-01-07T12:43:12.112Z,13.40
2023-01-07T12:48:12.471Z,9.90
2023-01-07T12:53:11.547Z,8.30
2023-01-07T12:58:09.856Z,9.80
2023-01-07T13:03:09.143Z,7.20
2023-01-07T13:08:08.462Z,7.30
2023-01-07T13:13:07.747Z,8.30
2023-01-07T13:18:07.922Z,6.50
2023-01-07T13:23:06.233Z,6.90
2023-01-07T13:28:06.552Z,6.20
2023-01-07T13:33:04.894Z,5.90
2023-01-07T13:38:06.029Z,4.90
2023-01-07T13:43:04.164Z,5.30
2023-01-07T13:48:02.316Z,68.40
2023-01-07T13:53:02.466Z,66.00
2023-01-07T13:58:02.619Z,46.90
2023-01-07T14:03:01.083Z,37.40
2023-01-07T14:08:00.181Z,33.80
2023-01-07T14:12:59.326Z,39.60
2023-01-07T14:17:58.493Z,29.10
2023-01-07T14:22:57.827Z,20.50
2023-01-07T14:27:58.140Z,17.30
2023-01-07T14:32:55.449Z,25.00
2023-01-07T14:37:55.756Z,17.70
2023-01-07T14:42:55.089Z,14.40
2023-01-07T14:47:54.189Z,12.60
2023-01-07T14:52:52.501Z,10.30
2023-01-07T14:57:51.823Z,9.50
2023-01-07T15:02:53.020Z,9.00
2023-01-07T15:07:51.282Z,7.70
2023-01-07T15:12:49.308Z,14.80
2023-01-07T15:17:48.417Z,26.50
2023-01-07T15:22:48.706Z,22.80
2023-01-07T15:27:48.017Z,15.80
2023-01-07T15:32:49.934Z,13.40
2023-01-07T15:37:46.569Z,9.70
2023-01-07T15:42:46.662Z,9.90
2023-01-07T15:47:44.934Z,8.40
2023-01-07T15:52:43.240Z,9.90
2023-01-07T15:57:42.529Z,14.00
2023-01-07T16:02:42.765Z,10.40
2023-01-07T16:07:41.156Z,10.10
2023-01-07T16:12:40.249Z,7.20
2023-01-07T16:17:39.582Z,7.40
2023-01-07T16:22:39.888Z,8.00
2023-01-07T16:27:38.203Z,8.50
2023-01-07T16:32:37.543Z,9.30
2023-01-07T16:37:37.722Z,9.80
2023-01-07T16:42:35.849Z,7.50
2023-01-07T16:47:36.152Z,8.40
2023-01-07T16:52:35.458Z,135.30
2023-01-07T16:57:34.766Z,102.00
2023-01-07T17:02:32.903Z,90.80
2023-01-07T17:07:33.029Z,71.20
2023-01-07T17:12:32.373Z,65.90
2023-01-07T17:17:31.537Z,54.80
2023-01-07T17:22:30.690Z,55.50
2023-01-07T17:27:30.012Z,173.40
2023-01-07T17:32:29.335Z,142.90
2023-01-07T17:37:29.651Z,109.40
2023-01-07T17:42:26.757Z,108.50
2023-01-07T17:47:26.056Z,85.10
2023-01-07T17:52:25.367Z,73.00
2023-01-07T17:57:24.717Z,64.20
2023-01-07T18:02:26.014Z,59.10
2023-01-07T18:07:23.026Z,59.20
2023-01-07T18:12:22.295Z,55.50
2023-01-07T18:17:21.566Z,50.80
2023-01-07T18:22:21.840Z,50.00
2023-01-07T18:27:21.132Z,43.50
2023-01-07T18:32:19.445Z,35.70
2023-01-07T18:37:18.756Z,44.30
2023-01-07T18:42:18.053Z,43.00
2023-01-07T18:47:18.359Z,28.50
2023-01-07T18:52:18.650Z,26.80
2023-01-07T18:57:15.975Z,24.20
2023-01-07T19:02:15.310Z,18.60
2023-01-07T19:07:14.617Z,18.80
2023-01-07T19:12:15.920Z,16.50
2023-01-07T19:17:14.218Z,21.20
2023-01-07T19:22:14.517Z,17.80
2023-01-07T19:27:11.782Z,19.80
2023-01-07T19:32:11.084Z,14.50
2023-01-07T19:37:10.388Z,16.40
2023-01-07T19:42:10.713Z,12.70
2023-01-07T19:47:09.040Z,12.20
2023-01-07T19:52:08.344Z,12.00
2023-01-07T19:57:07.718Z,12.50
2023-01-07T20:02:08.012Z,12.20
2023-01-07T20:07:07.047Z,11.30
2023-01-07T20:12:05.177Z,11.70
2023-01-07T20:17:04.323Z,9.20
2023-01-07T20:22:03.494Z,10.70
2023-01-07T20:27:02.664Z,8.70
2023-01-07T20:32:01.917Z,8.70
2023-01-07T20:37:00.123Z,7.20
2023-01-07T20:42:00.236Z,8.50
2023-01-07T20:46:59.539Z,8.00
2023-01-07T20:52:03.578Z,7.10
2023-01-07T20:56:58.981Z,8.80
2023-01-07T21:01:57.371Z,7.90
2023-01-07T21:06:56.498Z,9.20
2023-01-07T21:11:55.741Z,8.30
2023-01-07T21:16:54.957Z,8.40
2023-01-07T21:21:55.154Z,7.90
2023-01-07T21:26:52.324Z,8.50
2023-01-07T21:31:52.579Z,9.20
2023-01-07T21:36:51.770Z,9.40
2023-01-07T21:41:49.960Z,10.00
2023-01-07T21:46:52.208Z,9.80
2023-01-07T21:51:50.503Z,9.20
2023-01-07T21:56:48.830Z,11.10
2023-01-07T22:01:49.366Z,8.90
2023-01-07T22:06:50.323Z,9.20
2023-01-07T22:11:49.928Z,7.80
2023-01-07T22:16:49.076Z,7.40
2023-01-07T22:21:45.213Z,8.50
2023-01-07T22:26:45.411Z,8.10
2023-01-07T22:31:44.572Z,7.90
2023-01-07T22:36:42.757Z,7.50
2023-01-07T22:41:42.923Z,7.50
2023-01-07T22:46:41.245Z,8.80
2023-01-07T22:51:40.901Z,7.80
2023-01-07T22:56:39.719Z,7.90
2023-01-07T23:01:39.014Z,8.70
2023-01-07T23:06:39.284Z,8.70
2023-01-07T23:11:37.648Z,7.60
2023-01-07T23:16:36.837Z,7.60
2023-01-07T23:21:36.928Z,7.30
2023-01-07T23:26:35.231Z,8.70
2023-01-07T23:31:34.552Z,8.50
2023-01-07T23:36:33.690Z,8.10
2023-01-07T23:41:35.013Z,7.10
2023-01-07T23:46:33.321Z,6.50
2023-01-07T23:51:31.574Z,6.00
2023-01-07T23:56:31.866Z,7.00
